Time;durP1;ratioP1;P1;durP2;ratioP2;P2;SDS_P1;SDS_P2;PMS_P1;PMS_P2;Temp;Humidity;BMP_temperature;BMP_pressure;BME280_temperature;BME280_humidity;BME280_pressure;Samples;Min_cycle;Max_cycle;Signal;HPM_P1;HPM_P2
2023/04/08 00:02:10;;;;;;;22.25;11.13;;;7.00;99.90;;;;;;5017236;28;20099;-67
2023/04/08 00:04:36;;;;;;;22.05;11.18;;;6.90;99.90;;;;;;5017881;28;20025;-67
2023/04/08 00:07:02;;;;;;;21.70;10.68;;;6.90;99.90;;;;;;4996076;28;20032;-67
2023/04/08 00:09:27;;;;;;;22.33;11.02;;;6.70;99.90;;;;;;5015432;28;20096;-67
2023/04/08 00:11:53;;;;;;;20.23;11.05;;;6.80;99.90;;;;;;5011212;28;20498;-69
2023/04/08 00:14:19;;;;;;;23.08;11.15;;;6.80;99.90;;;;;;5019593;28;20034;-67
2023/04/08 00:16:45;;;;;;;22.30;11.30;;;6.90;99.90;;;;;;5017004;28;20021;-68
2023/04/08 00:19:11;;;;;;;22.23;11.77;;;6.80;99.90;;;;;;5012987;28;20558;-67
2023/04/08 00:21:37;;;;;;;22.35;11.45;;;6.80;99.90;;;;;;5015939;28;20045;-68
2023/04/08 00:24:03;;;;;;;23.60;11.00;;;6.80;99.90;;;;;;5017168;28;20076;-66
2023/04/08 00:26:29;;;;;;;22.05;10.77;;;6.80;99.90;;;;;;5016204;28;20049;-69
2023/04/08 00:28:55;;;;;;;22.25;11.73;;;6.80;99.90;;;;;;5015825;28;20382;-69
2023/04/08 00:31:21;;;;;;;20.13;10.10;;;6.80;99.90;;;;;;5017568;28;20026;-67
2023/04/08 00:33:46;;;;;;;18.83;10.80;;;6.80;99.90;;;;;;5015625;28;20080;-68
2023/04/08 00:36:12;;;;;;;19.90;10.57;;;6.90;99.90;;;;;;5014362;28;20117;-67
2023/04/08 00:38:38;;;;;;;21.50;10.50;;;6.80;99.90;;;;;;5016043;28;20033;-67
2023/04/08 00:41:04;;;;;;;18.15;11.00;;;6.90;99.90;;;;;;5014473;28;20380;-67
2023/04/08 00:43:29;;;;;;;20.30;11.05;;;6.80;99.90;;;;;;5012463;28;20183;-67
2023/04/08 00:45:55;;;;;;;18.63;10.48;;;6.90;99.90;;;;;;5016840;28;20528;-67
2023/04/08 00:48:21;;;;;;;16.02;10.05;;;6.80;99.90;;;;;;5019699;28;20026;-69
2023/04/08 00:50:47;;;;;;;20.50;10.90;;;6.90;99.90;;;;;;5015606;28;20224;-69
2023/04/08 00:53:19;;;;;;;21.73;10.43;;;6.80;99.90;;;;;;5017836;28;20034;-69
2023/04/08 00:55:45;;;;;;;17.17;10.07;;;6.90;99.90;;;;;;5021417;28;20022;-69
2023/04/08 00:58:12;;;;;;;18.45;10.85;;;6.90;99.90;;;;;;5019823;28;20028;-69
2023/04/08 01:00:47;;;;;;;16.80;10.05;;;7.00;99.90;;;;;;5016812;28;20049;-68
2023/04/08 01:03:32;;;;;;;21.90;10.77;;;6.90;99.90;;;;;;5017892;28;20044;-67
2023/04/08 01:06:26;;;;;;;19.90;10.35;;;6.90;99.90;;;;;;5017487;28;20473;-66
2023/04/08 01:08:53;;;;;;;19.08;10.60;;;7.00;99.90;;;;;;5016960;28;20509;-66
2023/04/08 01:11:20;;;;;;;15.23;9.50;;;7.00;99.90;;;;;;5017655;28;20299;-66
2023/04/08 01:13:48;;;;;;;17.05;10.15;;;7.00;99.90;;;;;;5018271;28;20113;-67
2023/04/08 01:16:15;;;;;;;15.27;8.80;;;7.00;99.90;;;;;;5014108;28;20030;-66
2023/04/08 01:18:43;;;;;;;18.65;9.25;;;7.00;99.90;;;;;;5014137;28;20380;-66
2023/04/08 01:21:12;;;;;;;18.02;9.93;;;7.00;99.90;;;;;;5020067;28;20033;-68
2023/04/08 01:24:15;;;;;;;18.92;9.70;;;6.90;99.90;;;;;;5000842;28;20089;-69
2023/04/08 01:26:42;;;;;;;16.42;8.63;;;6.90;99.90;;;;;;5037427;28;20037;-70
2023/04/08 01:29:11;;;;;;;17.08;8.93;;;6.90;99.90;;;;;;5018985;28;20048;-69
2023/04/08 01:31:38;;;;;;;18.17;9.57;;;6.90;99.90;;;;;;5018258;28;20022;-68
2023/04/08 01:34:05;;;;;;;15.75;9.57;;;6.90;99.90;;;;;;5014702;28;20060;-69
2023/04/08 01:36:32;;;;;;;14.20;8.75;;;6.90;99.90;;;;;;5017661;28;20386;-69
2023/04/08 01:39:01;;;;;;;17.27;9.15;;;6.90;99.90;;;;;;5016231;28;20026;-69
2023/04/08 01:41:29;;;;;;;16.65;8.80;;;6.90;99.90;;;;;;5019114;28;20051;-67
2023/04/08 01:43:56;;;;;;;17.25;8.70;;;7.00;99.90;;;;;;5019929;28;20095;-69
2023/04/08 01:46:22;;;;;;;18.65;9.40;;;6.90;99.90;;;;;;5018255;28;20018;-67
2023/04/08 01:48:49;;;;;;;21.73;10.27;;;6.90;99.90;;;;;;5016754;28;20497;-66
2023/04/08 01:51:16;;;;;;;19.75;9.63;;;6.90;99.90;;;;;;5031508;28;20461;-69
2023/04/08 01:53:43;;;;;;;17.92;9.52;;;7.00;99.90;;;;;;5018898;28;20509;-68
2023/04/08 01:56:13;;;;;;;17.05;9.18;;;7.00;99.90;;;;;;5012666;28;20188;-69
2023/04/08 01:58:41;;;;;;;15.40;9.73;;;6.90;99.90;;;;;;5018254;28;20030;-69
2023/04/08 02:01:11;;;;;;;19.48;10.02;;;6.90;99.90;;;;;;5016186;28;20385;-66
2023/04/08 02:03:40;;;;;;;18.08;9.43;;;6.90;99.90;;;;;;5013762;28;20030;-67
2023/04/08 02:06:06;;;;;;;20.63;10.25;;;6.90;99.90;;;;;;5014994;28;20055;-69
2023/04/08 02:08:34;;;;;;;17.50;8.98;;;6.90;99.90;;;;;;5017291;28;20036;-67
2023/04/08 02:11:00;;;;;;;13.85;8.95;;;6.90;99.90;;;;;;5051985;28;20029;-67
2023/04/08 02:13:26;;;;;;;20.38;10.02;;;6.90;99.90;;;;;;5017332;28;20030;-67
2023/04/08 02:16:00;;;;;;;15.80;8.85;;;6.90;99.90;;;;;;5013810;28;20064;-67
2023/04/08 02:18:29;;;;;;;15.90;9.45;;;6.90;99.90;;;;;;5014313;28;20512;-67
2023/04/08 02:21:20;;;;;;;18.13;9.45;;;6.90;99.90;;;;;;5017109;28;20041;-68
2023/04/08 02:23:50;;;;;;;17.38;8.85;;;6.80;99.90;;;;;;4991755;28;20033;-68
2023/04/08 02:26:17;;;;;;;16.45;9.02;;;6.70;99.90;;;;;;5017128;28;20138;-69
2023/04/08 02:28:44;;;;;;;15.25;8.50;;;6.70;99.90;;;;;;5019276;28;20033;-69
2023/04/08 02:31:12;;;;;;;12.55;7.57;;;6.70;99.90;;;;;;5019088;28;20048;-69
2023/04/08 02:33:39;;;;;;;12.18;7.85;;;6.90;99.90;;;;;;5013886;28;20112;-70
2023/04/08 02:36:05;;;;;;;15.85;8.55;;;6.90;99.90;;;;;;5016142;28;20022;-69
2023/04/08 02:38:31;;;;;;;15.00;8.23;;;6.80;99.90;;;;;;4999197;28;20033;-70
2023/04/08 02:40:57;;;;;;;14.15;8.30;;;6.90;99.90;;;;;;5016161;28;20033;-68
2023/04/08 02:43:31;;;;;;;13.52;7.85;;;6.90;99.90;;;;;;5019297;28;20025;-68
2023/04/08 02:45:59;;;;;;;13.75;8.40;;;6.90;99.90;;;;;;5013643;28;20449;-70
2023/04/08 02:48:25;;;;;;;14.75;8.75;;;6.90;99.90;;;;;;5017789;28;20508;-69
2023/04/08 02:50:50;;;;;;;13.50;8.57;;;6.80;99.90;;;;;;5014781;28;20026;-67
2023/04/08 02:53:16;;;;;;;16.60;9.43;;;6.80;99.90;;;;;;5015159;28;20030;-69
2023/04/08 02:55:42;;;;;;;16.35;8.68;;;6.70;99.90;;;;;;5015849;28;20036;-67
2023/04/08 02:58:07;;;;;;;14.73;9.13;;;6.70;99.90;;;;;;5021607;28;20075;-69
2023/04/08 03:00:33;;;;;;;14.32;8.52;;;6.70;99.90;;;;;;5019343;28;20034;-70
2023/04/08 03:02:59;;;;;;;16.42;9.35;;;6.70;99.90;;;;;;5001626;28;20527;-68
2023/04/08 03:05:26;;;;;;;13.65;9.30;;;6.80;99.90;;;;;;5023525;28;20029;-69
2023/04/08 03:07:51;;;;;;;17.33;10.20;;;6.80;99.90;;;;;;5031489;28;20053;-69
2023/04/08 03:10:17;;;;;;;15.07;9.15;;;6.80;99.90;;;;;;5003623;28;20497;-69
2023/04/08 03:12:43;;;;;;;15.70;9.38;;;6.80;99.90;;;;;;5024492;28;20485;-70
2023/04/08 03:15:09;;;;;;;15.63;9.25;;;6.80;99.90;;;;;;5022979;28;20025;-67
2023/04/08 03:17:35;;;;;;;18.77;10.48;;;6.80;99.90;;;;;;5016527;28;20474;-66
2023/04/08 03:20:03;;;;;;;15.07;9.68;;;6.70;99.90;;;;;;5018237;28;20029;-69
2023/04/08 03:22:29;;;;;;;13.85;9.88;;;6.80;99.90;;;;;;5015782;28;20056;-68
2023/04/08 03:24:55;;;;;;;19.35;10.80;;;6.80;99.90;;;;;;5016736;28;20033;-68
2023/04/08 03:27:20;;;;;;;16.27;10.45;;;6.80;99.90;;;;;;5013267;28;20044;-68
2023/04/08 03:29:46;;;;;;;16.17;10.25;;;6.80;99.90;;;;;;5016850;28;20041;-69
2023/04/08 03:32:12;;;;;;;16.42;10.95;;;6.80;99.90;;;;;;5016870;28;21184;-67
2023/04/08 03:34:38;;;;;;;22.85;11.88;;;6.80;99.90;;;;;;5017054;28;20041;-68
2023/04/08 03:37:04;;;;;;;18.70;11.30;;;6.80;99.90;;;;;;5016390;28;20116;-67
2023/04/08 03:39:30;;;;;;;17.35;10.93;;;6.80;99.90;;;;;;5017784;28;20332;-67
2023/04/08 03:41:56;;;;;;;18.50;11.32;;;6.80;99.90;;;;;;5015015;28;20401;-69
2023/04/08 03:44:21;;;;;;;17.23;11.27;;;6.80;99.90;;;;;;5013800;28;20042;-70
2023/04/08 03:46:47;;;;;;;19.15;11.82;;;6.70;99.90;;;;;;5014567;28;20459;-68
2023/04/08 03:49:13;;;;;;;20.85;11.45;;;6.70;99.90;;;;;;5019760;28;20017;-69
2023/04/08 03:51:38;;;;;;;25.60;12.23;;;6.70;99.90;;;;;;5016802;28;20041;-68
2023/04/08 03:54:05;;;;;;;20.73;12.32;;;6.60;99.90;;;;;;5016887;28;20030;-67
2023/04/08 03:56:30;;;;;;;28.40;13.18;;;6.60;99.90;;;;;;5014212;28;20117;-70
2023/04/08 03:58:56;;;;;;;26.75;13.20;;;6.70;99.90;;;;;;5018941;28;20097;-70
2023/04/08 04:01:22;;;;;;;29.05;13.25;;;6.60;99.90;;;;;;5025699;28;20061;-71
2023/04/08 04:03:47;;;;;;;23.08;13.70;;;6.50;99.90;;;;;;5027190;28;20028;-67
2023/04/08 04:06:13;;;;;;;28.35;14.80;;;6.40;99.90;;;;;;5016013;28;20033;-69
2023/04/08 04:08:39;;;;;;;27.55;13.77;;;6.50;99.90;;;;;;5015134;28;20064;-67
2023/04/08 04:11:04;;;;;;;27.27;15.40;;;6.40;99.90;;;;;;5014760;28;20034;-67
2023/04/08 04:13:30;;;;;;;26.95;15.68;;;6.30;99.90;;;;;;5019627;28;20091;-69
2023/04/08 04:15:56;;;;;;;28.58;14.73;;;6.40;99.90;;;;;;5015520;28;20030;-67
2023/04/08 04:18:22;;;;;;;30.85;14.95;;;6.40;99.90;;;;;;5010284;28;20081;-69
2023/04/08 04:20:47;;;;;;;29.13;14.13;;;6.40;99.90;;;;;;5018924;28;20030;-69
2023/04/08 04:23:13;;;;;;;26.35;14.40;;;6.40;99.90;;;;;;5021472;28;20026;-69
2023/04/08 04:25:43;;;;;;;25.77;14.45;;;6.40;99.90;;;;;;5018265;28;20037;-69
2023/04/08 04:28:08;;;;;;;27.45;14.75;;;6.40;99.90;;;;;;5016661;28;20026;-68
2023/04/08 04:30:38;;;;;;;31.98;15.30;;;6.40;99.90;;;;;;5019773;28;20515;-70
2023/04/08 04:33:04;;;;;;;34.72;17.15;;;6.50;99.90;;;;;;5017870;28;20193;-67
2023/04/08 04:35:30;;;;;;;33.92;15.75;;;6.40;99.90;;;;;;5015760;28;20451;-68
2023/04/08 04:37:56;;;;;;;30.73;15.20;;;6.40;99.90;;;;;;5021100;28;20104;-70
2023/04/08 04:40:22;;;;;;;35.90;15.80;;;6.40;99.90;;;;;;5017820;28;20033;-69
2023/04/08 04:42:48;;;;;;;34.53;15.57;;;6.50;99.90;;;;;;5019400;28;20101;-69
2023/04/08 04:45:14;;;;;;;30.58;16.17;;;6.40;99.90;;;;;;5020273;28;20557;-70
2023/04/08 04:47:40;;;;;;;34.97;15.00;;;6.30;99.90;;;;;;5018906;28;20030;-69
2023/04/08 04:50:06;;;;;;;32.15;15.68;;;6.40;99.90;;;;;;5017549;28;20021;-69
2023/04/08 04:52:32;;;;;;;28.48;14.68;;;6.30;99.90;;;;;;5017525;28;20061;-69
2023/04/08 04:54:58;;;;;;;33.60;15.85;;;6.30;99.90;;;;;;5017617;28;20035;-70
2023/04/08 04:57:23;;;;;;;36.17;15.13;;;6.30;99.90;;;;;;5019751;28;20026;-69
2023/04/08 04:59:49;;;;;;;34.88;15.95;;;6.30;99.90;;;;;;5015032;28;20113;-69
2023/04/08 05:02:15;;;;;;;32.30;14.45;;;6.40;99.90;;;;;;5018358;28;20036;-70
2023/04/08 05:04:41;;;;;;;32.50;15.18;;;6.40;99.90;;;;;;5000429;28;20113;-69
2023/04/08 05:07:06;;;;;;;29.98;14.55;;;6.20;99.90;;;;;;5019128;28;20044;-70
2023/04/08 05:09:32;;;;;;;28.90;14.88;;;6.10;99.90;;;;;;5016630;28;20037;-69
2023/04/08 05:11:58;;;;;;;30.02;14.93;;;6.10;99.90;;;;;;5017664;28;20039;-69
2023/04/08 05:14:23;;;;;;;29.85;14.50;;;6.10;99.90;;;;;;5015933;28;20050;-70
2023/04/08 05:16:49;;;;;;;30.73;15.38;;;6.20;99.90;;;;;;5020077;28;20632;-68
2023/04/08 05:19:15;;;;;;;31.35;13.73;;;6.20;99.90;;;;;;5017735;28;20115;-68
2023/04/08 05:21:40;;;;;;;28.92;14.52;;;6.10;99.90;;;;;;5017845;28;20387;-70
2023/04/08 05:24:06;;;;;;;30.90;14.88;;;6.10;99.90;;;;;;5018313;28;20401;-70
2023/04/08 05:26:32;;;;;;;30.52;15.85;;;6.10;99.90;;;;;;5015977;28;20033;-67
2023/04/08 05:28:57;;;;;;;28.63;14.43;;;6.30;99.90;;;;;;5017475;28;20116;-67
2023/04/08 05:31:23;;;;;;;18.70;8.90;;;6.30;99.90;;;;;;5016153;28;20089;-67
2023/04/08 05:33:49;;;;;;;34.83;15.68;;;6.90;99.90;;;;;;5018128;28;20449;-67
2023/04/08 05:36:15;;;;;;;30.30;14.63;;;6.90;99.90;;;;;;5017680;28;20112;-68
2023/04/08 05:38:43;;;;;;;28.65;16.23;;;6.50;99.90;;;;;;5015197;28;20105;-69
2023/04/08 05:41:09;;;;;;;29.52;15.02;;;6.50;99.90;;;;;;5016952;28;20037;-69
2023/04/08 05:43:35;;;;;;;32.88;15.50;;;6.50;99.90;;;;;;5014338;28;20440;-67
2023/04/08 05:46:10;;;;;;;27.52;15.05;;;6.40;99.90;;;;;;5016303;28;20105;-67
2023/04/08 05:48:36;;;;;;;33.60;15.45;;;6.30;99.90;;;;;;4998149;28;20021;-68
2023/04/08 05:51:02;;;;;;;27.98;14.82;;;6.40;99.90;;;;;;4998707;28;20049;-67
2023/04/08 05:53:28;;;;;;;28.73;14.50;;;6.30;99.90;;;;;;5014272;28;20462;-67
2023/04/08 05:55:53;;;;;;;28.85;15.55;;;6.30;99.90;;;;;;5017538;28;20133;-69
2023/04/08 05:58:19;;;;;;;30.63;14.18;;;6.30;99.90;;;;;;5015659;28;20091;-69
2023/04/08 06:00:45;;;;;;;34.30;14.88;;;6.30;99.90;;;;;;5016985;28;20053;-69
2023/04/08 06:03:10;;;;;;;32.17;15.15;;;6.30;99.90;;;;;;5019520;28;20036;-67
2023/04/08 06:05:36;;;;;;;35.15;16.25;;;6.30;99.90;;;;;;5018888;28;20041;-69
2023/04/08 06:08:02;;;;;;;29.60;15.35;;;6.30;99.90;;;;;;5012872;28;20044;-70
2023/04/08 06:10:27;;;;;;;28.73;14.68;;;6.40;99.90;;;;;;5018850;28;20566;-70
2023/04/08 06:12:53;;;;;;;27.52;13.98;;;6.40;99.90;;;;;;5017966;28;20064;-68
2023/04/08 06:15:20;;;;;;;30.90;16.27;;;6.40;99.90;;;;;;5014988;28;20451;-68
2023/04/08 06:17:45;;;;;;;27.45;13.90;;;6.40;99.90;;;;;;5010023;28;20060;-69
2023/04/08 06:20:11;;;;;;;31.63;16.00;;;6.50;99.90;;;;;;5013182;28;20057;-68
2023/04/08 06:22:37;;;;;;;29.35;14.90;;;6.40;99.90;;;;;;5017672;28;20042;-69
2023/04/08 06:25:03;;;;;;;35.08;15.68;;;6.40;99.90;;;;;;5014971;28;20446;-67
2023/04/08 06:27:29;;;;;;;29.92;15.55;;;6.30;99.90;;;;;;5011221;28;20197;-67
2023/04/08 06:29:54;;;;;;;32.67;16.05;;;6.30;99.90;;;;;;5005048;28;20030;-66
2023/04/08 06:32:21;;;;;;;33.45;15.25;;;6.30;99.90;;;;;;5003362;28;20025;-67
2023/04/08 06:34:47;;;;;;;34.67;16.45;;;6.30;99.90;;;;;;5010017;28;20030;-69
2023/04/08 06:37:13;;;;;;;35.95;17.17;;;6.30;99.90;;;;;;5016309;28;20026;-68
2023/04/08 06:39:39;;;;;;;33.75;16.75;;;6.30;99.90;;;;;;5007250;28;20056;-69
2023/04/08 06:42:05;;;;;;;30.70;14.90;;;6.30;99.90;;;;;;5007649;28;20041;-71
2023/04/08 06:44:31;;;;;;;31.92;15.25;;;6.20;99.90;;;;;;5014956;28;20033;-71
2023/04/08 06:46:57;;;;;;;29.08;13.98;;;6.10;99.90;;;;;;4997363;28;20033;-68
2023/04/08 06:49:22;;;;;;;29.35;14.48;;;6.10;99.90;;;;;;5019261;28;20037;-70
2023/04/08 06:51:48;;;;;;;34.83;16.50;;;6.00;99.90;;;;;;5020237;28;20105;-68
2023/04/08 06:54:14;;;;;;;26.83;13.38;;;6.10;99.90;;;;;;5013179;28;20036;-68
2023/04/08 06:56:40;;;;;;;30.75;14.65;;;6.10;99.90;;;;;;5012054;28;20034;-67
2023/04/08 06:59:05;;;;;;;32.28;15.40;;;6.20;99.90;;;;;;5011499;28;20064;-70
2023/04/08 07:01:31;;;;;;;28.75;13.90;;;6.30;99.90;;;;;;5016031;28;20030;-68
2023/04/08 07:03:57;;;;;;;28.23;13.75;;;6.30;99.90;;;;;;5015070;28;20033;-68
2023/04/08 07:06:23;;;;;;;30.67;13.70;;;6.30;99.90;;;;;;5014957;28;20030;-70
2023/04/08 07:08:49;;;;;;;29.65;14.55;;;6.40;99.90;;;;;;5014256;28;20026;-68
2023/04/08 07:11:15;;;;;;;33.80;16.63;;;6.40;99.90;;;;;;5013998;28;20043;-69
2023/04/08 07:13:42;;;;;;;34.40;15.90;;;6.40;99.90;;;;;;5019682;28;20069;-67
2023/04/08 07:16:08;;;;;;;32.35;16.08;;;6.40;99.90;;;;;;5013343;28;20057;-68
2023/04/08 07:18:34;;;;;;;28.65;11.68;;;6.40;99.90;;;;;;5015677;28;20294;-69
2023/04/08 07:21:00;;;;;;;33.15;15.70;;;6.80;99.90;;;;;;5013246;28;20541;-68
2023/04/08 07:23:26;;;;;;;34.15;15.88;;;6.70;99.90;;;;;;5015588;28;20052;-68
2023/04/08 07:25:52;;;;;;;30.55;16.35;;;6.50;99.90;;;;;;5019834;28;20444;-69
2023/04/08 07:28:19;;;;;;;31.02;15.40;;;6.50;99.90;;;;;;5013971;28;20122;-69
2023/04/08 07:30:46;;;;;;;33.03;15.10;;;6.50;99.90;;;;;;5017062;28;20080;-67
2023/04/08 07:33:12;;;;;;;29.75;14.32;;;6.50;99.90;;;;;;5016036;28;20026;-67
2023/04/08 07:35:37;;;;;;;27.92;13.25;;;6.40;99.90;;;;;;5017237;28;20045;-68
2023/04/08 07:38:03;;;;;;;29.42;14.20;;;6.40;99.90;;;;;;5013143;28;20370;-68
2023/04/08 07:40:29;;;;;;;27.08;14.38;;;6.50;99.90;;;;;;5017161;28;20022;-69
2023/04/08 07:42:55;;;;;;;31.25;14.13;;;6.50;99.90;;;;;;5022804;28;20025;-68
2023/04/08 07:45:21;;;;;;;25.50;14.02;;;6.60;99.90;;;;;;5015976;28;20048;-70
2023/04/08 07:47:47;;;;;;;26.10;13.10;;;6.60;99.90;;;;;;5013517;28;20432;-68
2023/04/08 07:50:12;;;;;;;27.38;13.55;;;6.70;99.90;;;;;;5007597;28;20026;-69
2023/04/08 07:52:38;;;;;;;30.15;15.02;;;6.70;99.90;;;;;;5012063;28;20033;-69
2023/04/08 07:55:04;;;;;;;28.00;15.15;;;6.60;99.90;;;;;;4998558;28;20650;-73
2023/04/08 07:57:31;;;;;;;26.45;12.65;;;6.60;99.90;;;;;;4990779;28;20033;-69
2023/04/08 07:59:56;;;;;;;29.67;14.40;;;6.60;99.90;;;;;;5018731;28;20453;-69
2023/04/08 08:02:22;;;;;;;24.00;13.20;;;6.60;99.90;;;;;;5019570;28;20033;-68
2023/04/08 08:04:48;;;;;;;24.70;12.50;;;6.50;99.90;;;;;;5024665;28;20396;-67
2023/04/08 08:07:14;;;;;;;25.15;12.30;;;6.50;99.90;;;;;;5020561;28;20026;-69
2023/04/08 08:09:40;;;;;;;28.42;12.90;;;6.40;99.90;;;;;;5022797;28;20046;-69
2023/04/08 08:12:05;;;;;;;27.65;12.88;;;6.40;99.90;;;;;;5020075;28;20148;-68
2023/04/08 08:14:31;;;;;;;25.45;12.50;;;6.40;99.90;;;;;;5019423;28;20033;-67
2023/04/08 08:16:57;;;;;;;21.83;12.05;;;6.50;99.90;;;;;;5051184;28;20087;-68
2023/04/08 08:19:23;;;;;;;23.33;11.30;;;6.60;99.90;;;;;;5015379;28;20033;-68
2023/04/08 08:21:49;;;;;;;25.15;11.90;;;6.70;99.90;;;;;;5016356;28;20034;-69
2023/04/08 08:24:15;;;;;;;23.75;12.60;;;6.60;99.90;;;;;;5017108;28;20034;-70
2023/04/08 08:26:41;;;;;;;19.20;10.60;;;6.50;99.90;;;;;;5011302;28;20573;-70
2023/04/08 08:29:07;;;;;;;24.25;11.15;;;6.60;99.90;;;;;;5018332;28;20030;-68
2023/04/08 08:31:33;;;;;;;21.08;11.50;;;6.70;99.90;;;;;;5015154;28;20498;-68
2023/04/08 08:33:59;;;;;;;23.35;11.88;;;6.80;99.90;;;;;;5015004;28;20049;-68
2023/04/08 08:36:26;;;;;;;22.48;10.90;;;6.80;99.90;;;;;;5014841;28;20390;-67
2023/04/08 08:38:53;;;;;;;19.95;10.70;;;6.70;99.90;;;;;;5022816;28;20025;-69
2023/04/08 08:41:20;;;;;;;24.38;10.85;;;6.70;99.90;;;;;;5027254;28;20569;-68
2023/04/08 08:43:46;;;;;;;23.90;10.90;;;6.80;99.90;;;;;;5021121;28;20084;-68
2023/04/08 08:46:15;;;;;;;23.42;11.50;;;6.90;99.90;;;;;;5015304;28;20042;-69
2023/04/08 08:48:41;;;;;;;24.45;11.32;;;7.00;99.90;;;;;;5014450;28;20040;-68
2023/04/08 08:51:10;;;;;;;19.42;11.05;;;7.10;99.90;;;;;;5012021;28;20034;-69
2023/04/08 08:53:36;;;;;;;22.88;12.02;;;7.20;99.90;;;;;;5017097;28;20448;-67
2023/04/08 08:56:03;;;;;;;22.67;11.80;;;7.20;99.90;;;;;;5019274;28;20026;-69
2023/04/08 08:58:29;;;;;;;22.58;11.75;;;7.20;99.90;;;;;;5019050;28;20035;-67
2023/04/08 09:00:54;;;;;;;23.45;11.77;;;7.20;99.90;;;;;;5018163;28;20021;-70
2023/04/08 09:03:21;;;;;;;21.65;11.77;;;7.20;99.90;;;;;;5016669;28;20037;-69
2023/04/08 09:05:54;;;;;;;21.10;10.48;;;7.20;99.90;;;;;;5010392;28;20038;-68
2023/04/08 09:08:33;;;;;;;22.15;11.63;;;7.30;99.90;;;;;;5015981;28;20030;-69
2023/04/08 09:11:20;;;;;;;21.48;11.23;;;7.20;99.90;;;;;;5019937;28;20075;-68
2023/04/08 09:13:46;;;;;;;21.60;10.85;;;7.30;99.90;;;;;;5014810;28;20034;-69
2023/04/08 09:16:17;;;;;;;20.95;11.57;;;7.20;99.90;;;;;;5018202;28;20026;-69
2023/04/08 09:18:45;;;;;;;24.05;11.70;;;7.20;99.90;;;;;;4998923;28;20072;-69
2023/04/08 09:21:13;;;;;;;23.05;12.25;;;7.10;99.90;;;;;;5012110;28;20033;-68
2023/04/08 09:23:48;;;;;;;22.42;12.55;;;7.20;99.90;;;;;;5018165;28;20029;-70
2023/04/08 09:26:20;;;;;;;21.35;11.90;;;7.20;99.90;;;;;;5019351;28;20112;-70
2023/04/08 09:29:05;;;;;;;17.98;10.95;;;7.30;99.90;;;;;;5020856;28;20057;-68
2023/04/08 09:31:33;;;;;;;17.10;8.13;;;7.50;99.90;;;;;;5007491;28;20174;-67
2023/04/08 09:34:03;;;;;;;23.42;12.77;;;7.80;99.90;;;;;;5014854;28;20025;-69
2023/04/08 09:36:29;;;;;;;26.05;12.60;;;8.00;99.90;;;;;;5015653;28;20036;-68
2023/04/08 09:38:55;;;;;;;24.63;12.25;;;7.80;99.90;;;;;;5009633;28;20030;-68
2023/04/08 09:41:24;;;;;;;24.27;13.38;;;7.70;99.90;;;;;;5009169;28;20034;-69
2023/04/08 09:43:53;;;;;;;24.60;12.75;;;7.60;99.90;;;;;;5017205;28;20130;-68
2023/04/08 09:46:32;;;;;;;33.72;13.48;;;7.60;99.90;;;;;;5013715;28;20080;-67
2023/04/08 09:49:06;;;;;;;20.02;11.73;;;7.50;99.90;;;;;;5023371;28;20030;-68
2023/04/08 09:51:39;;;;;;;26.50;12.75;;;7.40;99.90;;;;;;5012813;28;20151;-69
2023/04/08 09:54:12;;;;;;;22.05;11.60;;;7.50;99.90;;;;;;5016759;28;20057;-69
2023/04/08 09:56:48;;;;;;;21.33;12.02;;;7.50;99.90;;;;;;5017843;28;20033;-69
2023/04/08 09:59:20;;;;;;;21.42;12.10;;;7.50;99.90;;;;;;5017395;28;20394;-69
2023/04/08 10:01:53;;;;;;;20.73;10.75;;;8.20;99.90;;;;;;5018238;28;20965;-71
2023/04/08 10:04:21;;;;;;;18.65;10.88;;;8.00;99.90;;;;;;5010684;28;20033;-70
2023/04/08 10:06:57;;;;;;;27.02;11.68;;;7.90;99.90;;;;;;5016462;28;20088;-68
2023/04/08 10:09:24;;;;;;;18.90;11.20;;;7.90;99.90;;;;;;5006028;28;20145;-68
2023/04/08 10:11:50;;;;;;;20.48;11.40;;;8.00;99.90;;;;;;5031854;28;20065;-68
2023/04/08 10:14:21;;;;;;;23.00;11.75;;;7.90;99.90;;;;;;5008925;28;20478;-68
2023/04/08 10:16:47;;;;;;;21.48;11.65;;;8.00;99.90;;;;;;5001910;28;20044;-67
2023/04/08 10:19:45;;;;;;;23.42;12.70;;;8.00;99.90;;;;;;4999739;28;20620;-70
2023/04/08 10:22:33;;;;;;;23.17;12.43;;;7.90;99.90;;;;;;5006392;28;20038;-68
2023/04/08 10:25:17;;;;;;;27.20;14.23;;;7.90;99.90;;;;;;4995045;28;20037;-71
2023/04/08 10:27:44;;;;;;;23.65;13.07;;;7.90;99.90;;;;;;5014928;28;20033;-72
2023/04/08 10:30:25;;;;;;;24.92;14.40;;;7.90;99.90;;;;;;5017072;28;20032;-69
2023/04/08 10:33:00;;;;;;;24.17;13.82;;;7.70;99.90;;;;;;5016291;28;20462;-70
2023/04/08 10:35:30;;;;;;;26.05;14.27;;;7.80;99.90;;;;;;5014461;28;20025;-70
2023/04/08 10:37:57;;;;;;;27.98;13.93;;;7.80;99.90;;;;;;5012456;28;20032;-67
2023/04/08 10:40:23;;;;;;;24.23;14.13;;;7.90;99.90;;;;;;5016316;28;20029;-68
2023/04/08 10:42:56;;;;;;;25.60;14.63;;;8.00;99.90;;;;;;5009751;28;20590;-68
2023/04/08 10:45:22;;;;;;;19.17;12.13;;;8.00;99.90;;;;;;5008635;28;20036;-68
2023/04/08 10:47:48;;;;;;;21.50;11.48;;;7.90;99.90;;;;;;5005431;28;20699;-69
2023/04/08 10:50:16;;;;;;;23.80;12.75;;;7.80;99.90;;;;;;4987320;28;20133;-70
2023/04/08 10:52:52;;;;;;;20.13;11.68;;;7.70;99.90;;;;;;5011286;28;20117;-69
2023/04/08 10:55:25;;;;;;;20.05;11.82;;;7.70;99.90;;;;;;5012944;28;20060;-70
2023/04/08 10:57:52;;;;;;;19.90;12.35;;;7.70;99.90;;;;;;5037028;28;20017;-69
2023/04/08 11:00:31;;;;;;;20.65;12.15;;;7.70;99.90;;;;;;5024550;28;20033;-69
2023/04/08 11:03:09;;;;;;;21.75;12.32;;;7.80;99.90;;;;;;5016191;28;20022;-68
2023/04/08 11:05:36;;;;;;;21.98;13.13;;;7.70;99.90;;;;;;5020277;28;20555;-68
2023/04/08 11:08:03;;;;;;;26.80;14.45;;;7.50;99.90;;;;;;4995869;28;20444;-68
2023/04/08 11:10:30;;;;;;;44.17;17.77;;;7.60;99.90;;;;;;5018404;28;20033;-67
2023/04/08 11:12:57;;;;;;;26.15;14.82;;;8.30;99.90;;;;;;5015536;28;20445;-69
2023/04/08 11:15:27;;;;;;;24.70;13.98;;;8.20;99.90;;;;;;5005363;28;20033;-68
2023/04/08 11:17:54;;;;;;;22.70;14.80;;;8.00;99.90;;;;;;5013096;28;20112;-69
2023/04/08 11:20:20;;;;;;;25.85;14.15;;;7.90;99.90;;;;;;5011154;28;20676;-69
2023/04/08 11:22:47;;;;;;;23.67;14.65;;;7.90;99.90;;;;;;5010986;28;20041;-68
2023/04/08 11:25:14;;;;;;;27.38;15.95;;;7.90;99.90;;;;;;5014630;28;20039;-70
2023/04/08 11:27:40;;;;;;;28.05;16.33;;;7.80;99.90;;;;;;5010312;28;20061;-71
2023/04/08 11:30:07;;;;;;;43.88;20.00;;;8.00;99.90;;;;;;5012728;28;22015;-71
2023/04/08 11:32:35;;;;;;;25.55;15.25;;;8.70;99.90;;;;;;5016757;28;20037;-72
2023/04/08 11:35:03;;;;;;;26.10;16.00;;;8.30;99.90;;;;;;5009559;28;20026;-72
2023/04/08 11:37:37;;;;;;;30.20;16.55;;;8.20;99.90;;;;;;5002394;28;20036;-72
2023/04/08 11:40:07;;;;;;;29.70;16.42;;;8.20;99.90;;;;;;5009855;28;20041;-72
2023/04/08 11:42:32;;;;;;;26.90;15.20;;;8.30;99.90;;;;;;5013090;28;20021;-75
2023/04/08 11:44:58;;;;;;;30.25;16.60;;;8.10;99.90;;;;;;5013053;28;20031;-68
2023/04/08 11:47:32;;;;;;;27.33;16.48;;;8.40;99.90;;;;;;5015388;28;20048;-68
2023/04/08 11:49:58;;;;;;;25.30;16.38;;;8.10;99.90;;;;;;5012871;28;20029;-69
2023/04/08 11:52:43;;;;;;;27.77;16.20;;;7.90;99.90;;;;;;5015701;28;20504;-68
2023/04/08 11:55:21;;;;;;;31.50;16.10;;;8.00;99.90;;;;;;5029925;28;20147;-67
2023/04/08 11:57:47;;;;;;;31.55;17.38;;;8.00;99.90;;;;;;5011848;28;20097;-68
2023/04/08 12:00:14;;;;;;;29.45;18.10;;;8.10;99.90;;;;;;5013177;28;20523;-68
2023/04/08 12:02:40;;;;;;;34.35;18.15;;;7.80;99.90;;;;;;5013891;28;20527;-70
2023/04/08 12:05:07;;;;;;;31.70;18.17;;;7.90;99.90;;;;;;5016776;28;20025;-70
2023/04/08 12:07:32;;;;;;;30.05;17.75;;;7.90;99.90;;;;;;5013998;28;20120;-69
2023/04/08 12:10:00;;;;;;;32.50;17.55;;;7.90;99.90;;;;;;5013665;28;20469;-72
2023/04/08 12:12:26;;;;;;;29.63;17.27;;;7.90;99.90;;;;;;5028563;28;20057;-70
2023/04/08 12:14:52;;;;;;;28.75;16.85;;;8.00;99.90;;;;;;5017978;28;20451;-69
2023/04/08 12:17:18;;;;;;;30.63;16.65;;;8.10;99.90;;;;;;5014493;28;20022;-70
2023/04/08 12:19:44;;;;;;;24.13;14.63;;;8.20;99.90;;;;;;5005297;28;20091;-69
2023/04/08 12:22:09;;;;;;;26.17;15.30;;;8.20;99.90;;;;;;5017729;28;20026;-68
2023/04/08 12:24:35;;;;;;;26.38;14.52;;;8.00;99.90;;;;;;5011810;28;20046;-69
2023/04/08 12:27:04;;;;;;;23.42;14.75;;;8.00;99.90;;;;;;5015101;28;20061;-69
2023/04/08 12:29:30;;;;;;;23.80;15.55;;;8.10;99.90;;;;;;5008915;28;20529;-68
2023/04/08 12:31:56;;;;;;;28.50;15.10;;;8.20;99.90;;;;;;5014608;28;20104;-68
2023/04/08 12:34:21;;;;;;;28.52;16.95;;;8.40;99.90;;;;;;5013182;28;20532;-68
2023/04/08 12:36:48;;;;;;;27.70;17.08;;;8.30;99.90;;;;;;5017896;28;20014;-69
2023/04/08 12:39:14;;;;;;;31.13;17.70;;;8.20;99.90;;;;;;5014890;28;20045;-70
2023/04/08 12:41:43;;;;;;;27.17;15.85;;;8.20;99.90;;;;;;5019128;28;20021;-69